Kalamazoo, MI (49006)

10:36 PM EST on February 28, 2015 (GMT -0500)
Westwood | Change Station
CLOSE
Current Station
Personal Weather Station
Location: Kalamazoo, MI
Elevation: 955 ft
Nearby Weather Stations

Elev 955 ft 42.30 °N, 85.62 °W | Updated 2 seconds ago

Overcast
Overcast
16.9 °F
Feels Like 12 °F
N
3.1
Wind Variable Wind from SSE
Gusts 3.1 mph

Today
High -- | Low -- °F
--% Chance of Precip.
Yesterday
High -- | Low -- °F
Precip. -- in
7:19 AM 6:30 PM
Waxing Gibbous, 82% visible
Pressure 30.59 in
Visibility 10.0 miles
Clouds Overcast 5500 ft
Windchill 12 °F
Dew Point -0 °F
Humidity 46%
Rainfall 0.00 in
Snow Depth Not available.
UV 0 out of 12
Pollen .30 out of 12
Air Quality Not available.
Flu Activity Not available.
METAR KAZO 010253Z 16005KT 10SM OVC055 M08/M16 A3052 RMK AO2 SLP357 6//// T10831161 56014 PNO $

More Conditions Fewer Conditions

Pressure 30.59 in
Visibility 10.0 miles
Clouds Overcast 5500 ft
Windchill 12 °F
Dew Point -0 °F
Humidity 46%
Rainfall 0.00 in
Snow Depth Not available.
UV 0 out of 12
Pollen .30 out of 12
Air Quality Not available.
Flu Activity Not available.
METAR KAZO 010253Z 16005KT 10SM OVC055 M08/M16 A3052 RMK AO2 SLP357 6//// T10831161 56014 PNO $

More Conditions Fewer Conditions

10-Day Weather Forecast

Almanac

Astronomy

Feb. 28, 2015 Rise Set
Actual Time
Civil Twilight
Nautical Twilight
Astronomical Twilight
Moon
Length of Visible Light
Length of Day
Tomorrow will be .
, % of the Moon is Illuminated

Today's Extremes

State Highs State Lows

Community

WunderPhotos

Upload Photos

1,801,284 photos uploaded!

WunderBlogs® & News

Nearby

Air Quality

  Air Quality AQ Index Pollutant
Not available.

Snow Depth

Station Depth Elevation

Earthquake Activity

City Distance Mag. Time & Date
Minimum magnitude displayed is 2.5.

Coastal Water Temperatures

Place Temperature

Nearby Weather Stations